createdAt,value
2018-09-03T00:02:23.598Z,4.90
2018-09-03T00:07:27.199Z,3.53
2018-09-03T00:12:30.197Z,2.63
2018-09-03T00:17:33.223Z,4.00
2018-09-03T00:22:36.221Z,2.47
2018-09-03T00:27:39.338Z,4.70
2018-09-03T00:32:48.602Z,3.00
2018-09-03T00:37:57.849Z,3.00
2018-09-03T00:43:06.554Z,2.83
2018-09-03T00:48:09.733Z,2.23
2018-09-03T00:53:13.414Z,3.27
2018-09-03T00:58:18.614Z,2.80
2018-09-03T01:03:22.335Z,3.37
2018-09-03T01:08:26.240Z,2.83
2018-09-03T01:13:29.361Z,5.20
2018-09-03T01:18:36.944Z,2.70
2018-09-03T01:23:40.011Z,3.00
2018-09-03T01:28:43.126Z,4.80
2018-09-03T01:33:52.197Z,4.83
2018-09-03T01:38:55.624Z,2.87
2018-09-03T01:43:58.829Z,3.10
2018-09-03T01:49:02.144Z,3.03
2018-09-03T01:54:05.402Z,2.73
2018-09-03T01:59:08.395Z,2.70
2018-09-03T02:04:12.060Z,5.80
2018-09-03T02:09:17.242Z,3.27
2018-09-03T02:14:21.701Z,5.80
2018-09-03T02:19:25.556Z,3.10
2018-09-03T02:24:29.118Z,4.20
2018-09-03T02:29:32.134Z,3.13
2018-09-03T02:34:35.101Z,2.70
2018-09-03T02:39:38.045Z,3.70
2018-09-03T02:44:41.545Z,3.30
2018-09-03T02:49:46.154Z,3.40
2018-09-03T02:54:50.982Z,3.00
2018-09-03T02:59:55.062Z,3.23
2018-09-03T03:04:58.703Z,4.57
2018-09-03T03:10:02.095Z,3.43
2018-09-03T03:15:05.732Z,4.30
2018-09-03T03:20:09.377Z,3.80
2018-09-03T03:25:13.444Z,7.90
2018-09-03T03:30:20.636Z,5.13
2018-09-03T03:35:25.184Z,4.57
2018-09-03T03:40:29.031Z,5.75
2018-09-03T03:45:32.381Z,4.00
2018-09-03T03:50:35.803Z,3.70
2018-09-03T03:55:39.208Z,4.53
2018-09-03T04:00:42.591Z,4.93
2018-09-03T04:05:47.318Z,5.80
2018-09-03T04:10:51.419Z,4.47
2018-09-03T04:15:55.193Z,5.07
2018-09-03T04:20:58.598Z,6.40
2018-09-03T04:26:01.950Z,6.57
2018-09-03T04:31:05.357Z,5.00
2018-09-03T04:36:08.883Z,13.53
2018-09-03T04:41:12.353Z,5.03
2018-09-03T04:46:18.226Z,5.50
2018-09-03T04:51:23.241Z,5.30
2018-09-03T04:56:27.657Z,5.83
2018-09-03T05:01:31.255Z,4.80
2018-09-03T05:06:34.682Z,6.20
2018-09-03T05:11:38.079Z,8.30
2018-09-03T05:16:41.462Z,7.20
2018-09-03T05:21:47.126Z,5.63
2018-09-03T05:26:53.229Z,6.20
2018-09-03T05:31:58.303Z,8.60
2018-09-03T05:37:01.727Z,6.27
2018-09-03T05:42:05.626Z,9.37
2018-09-03T05:47:09.115Z,7.17
2018-09-03T05:52:12.584Z,10.50
2018-09-03T05:57:21.858Z,9.20
2018-09-03T06:02:26.754Z,6.50
2018-09-03T06:07:32.192Z,7.83
2018-09-03T06:12:35.832Z,7.37
2018-09-03T06:17:39.096Z,10.20
2018-09-03T06:22:42.435Z,8.53
2018-09-03T06:27:45.822Z,7.90
2018-09-03T06:32:49.252Z,15.43
2018-09-03T06:37:58.945Z,7.00
2018-09-03T06:43:04.761Z,7.57
2018-09-03T06:48:08.184Z,11.63
2018-09-03T06:53:13.942Z,9.80
2018-09-03T06:58:17.371Z,10.57
2018-09-03T07:03:20.832Z,7.47
2018-09-03T07:08:24.423Z,7.60
2018-09-03T07:13:27.782Z,13.97
2018-09-03T07:18:37.021Z,14.43
2018-09-03T07:23:43.745Z,13.43
2018-09-03T07:28:47.321Z,10.70
2018-09-03T07:33:50.807Z,11.50
2018-09-03T07:38:54.233Z,12.63
2018-09-03T07:43:58.520Z,12.30
2018-09-03T07:49:09.021Z,13.33
2018-09-03T07:54:13.755Z,16.93
2018-09-03T07:59:17.240Z,13.73
2018-09-03T08:04:20.624Z,12.07
2018-09-03T08:09:24.188Z,10.30
2018-09-03T08:14:33.137Z,13.23
2018-09-03T08:19:37.991Z,14.10
2018-09-03T08:24:41.392Z,9.67
2018-09-03T08:29:44.967Z,13.80
2018-09-03T08:34:50.253Z,11.10
2018-09-03T08:39:53.545Z,15.70
2018-09-03T08:45:01.607Z,18.00
2018-09-03T08:50:06.961Z,11.43
2018-09-03T08:55:10.685Z,18.80
2018-09-03T09:00:14.080Z,14.60
2018-09-03T09:05:17.447Z,13.93
2018-09-03T09:10:20.974Z,12.40
2018-09-03T09:15:24.334Z,14.00
2018-09-03T09:20:34.877Z,12.17
2018-09-03T09:25:39.583Z,18.70
2018-09-03T09:30:43.004Z,17.27
2018-09-03T09:35:46.707Z,20.97
2018-09-03T09:40:51.156Z,23.63
2018-09-03T09:45:58.331Z,24.77
2018-09-03T09:51:02.590Z,33.87
2018-09-03T09:56:06.163Z,31.23
2018-09-03T10:01:17.549Z,26.77
2018-09-03T10:06:25.974Z,31.13
2018-09-03T10:11:32.066Z,28.60
2018-09-03T10:16:35.580Z,25.77
2018-09-03T10:21:38.967Z,24.40
2018-09-03T10:26:42.381Z,26.47
2018-09-03T10:31:46.094Z,31.30
2018-09-03T10:36:49.549Z,23.57
2018-09-03T10:41:53.606Z,30.43
2018-09-03T10:46:57.010Z,26.47
2018-09-03T10:52:00.438Z,23.00
2018-09-03T10:57:06.947Z,21.07
2018-09-03T11:02:13.477Z,24.33
2018-09-03T11:07:16.994Z,24.73
2018-09-03T11:12:20.457Z,19.17
2018-09-03T11:17:24.795Z,23.73
2018-09-03T11:22:29.047Z,20.20
2018-09-03T11:27:35.477Z,25.93
2018-09-03T11:32:44.489Z,29.47
2018-09-03T11:37:49.676Z,22.23
2018-09-03T11:42:55.169Z,25.47
2018-09-03T11:47:59.828Z,27.13
2018-09-03T11:53:08.354Z,22.50
2018-09-03T11:58:15.227Z,23.00
2018-09-03T12:03:19.614Z,21.00
2018-09-03T12:08:23.162Z,21.20
2018-09-03T12:13:33.698Z,27.20
2018-09-03T12:18:38.997Z,20.63
2018-09-03T12:23:43.135Z,24.73
2018-09-03T12:28:46.370Z,22.17
2018-09-03T12:33:49.860Z,21.50
2018-09-03T12:38:53.246Z,23.27
2018-09-03T12:44:00.292Z,20.43
2018-09-03T12:49:03.810Z,17.70
2018-09-03T12:54:07.937Z,21.13
2018-09-03T12:59:14.488Z,19.53
2018-09-03T13:04:20.729Z,24.00
2018-09-03T13:09:25.589Z,20.87
2018-09-03T13:14:28.990Z,20.23
2018-09-03T13:19:34.058Z,19.63
2018-09-03T13:24:38.673Z,19.23
2018-09-03T13:29:42.609Z,46.43
2018-09-03T13:34:48.549Z,17.27
2018-09-03T13:39:52.702Z,19.03
2018-09-03T13:45:16.630Z,22.73
2018-09-03T13:50:20.046Z,19.37
2018-09-03T13:55:23.404Z,14.00
2018-09-03T14:00:27.441Z,15.83
2018-09-03T14:10:48.454Z,19.67
2018-09-03T14:15:53.015Z,19.47
2018-09-03T14:20:59.672Z,29.27
2018-09-03T14:26:05.246Z,21.93
2018-09-03T14:31:10.648Z,17.07
2018-09-03T14:36:14.058Z,18.50
2018-09-03T14:41:17.590Z,14.27
2018-09-03T14:46:20.972Z,16.13
2018-09-03T14:51:27.276Z,13.63
2018-09-03T14:56:31.729Z,15.00
2018-09-03T15:01:35.801Z,17.47
2018-09-03T15:06:40.110Z,17.37
2018-09-03T15:11:43.467Z,16.80
2018-09-03T15:16:46.931Z,17.97
2018-09-03T15:21:50.333Z,18.23
2018-09-03T15:26:55.908Z,15.63
2018-09-03T15:32:02.532Z,15.97
2018-09-03T15:37:06.455Z,17.67
2018-09-03T15:42:11.566Z,15.57
2018-09-03T15:47:15.019Z,18.63
2018-09-03T15:52:18.843Z,13.87
2018-09-03T15:57:22.381Z,18.70
2018-09-03T16:02:27.647Z,20.27
2018-09-03T16:07:32.674Z,19.80
2018-09-03T16:12:37.114Z,22.07
2018-09-03T16:17:41.882Z,14.53
2018-09-03T16:22:45.301Z,21.07
2018-09-03T16:27:50.516Z,15.73
2018-09-03T16:32:58.073Z,24.77
2018-09-03T16:38:01.696Z,15.40
2018-09-03T16:43:07.329Z,28.47
2018-09-03T16:48:12.003Z,16.53
2018-09-03T16:53:15.524Z,16.10
2018-09-03T16:58:18.909Z,18.93
2018-09-03T17:03:27.806Z,20.90
2018-09-03T17:08:33.054Z,21.30
2018-09-03T17:13:37.091Z,16.70
2018-09-03T17:18:40.406Z,16.13
2018-09-03T17:23:43.813Z,15.03
2018-09-03T17:28:47.227Z,21.27
2018-09-03T17:33:50.627Z,13.70
2018-09-03T17:38:58.805Z,18.10
2018-09-03T17:44:03.651Z,17.27
2018-09-03T17:49:07.295Z,20.73
2018-09-03T17:54:10.730Z,19.67
2018-09-03T17:59:15.573Z,17.33
2018-09-03T18:04:20.182Z,16.00
2018-09-03T18:09:29.279Z,16.57
2018-09-03T18:14:34.977Z,16.80
2018-09-03T18:19:39.679Z,17.20
2018-09-03T18:24:44.763Z,15.17
2018-09-03T18:29:49.448Z,21.30
2018-09-03T18:34:56.886Z,17.87
2018-09-03T18:40:01.010Z,19.10
2018-09-03T18:45:06.225Z,22.77
2018-09-03T18:50:12.544Z,21.20
2018-09-03T18:55:16.431Z,20.10
2018-09-03T19:00:20.595Z,15.53
2018-09-03T19:05:26.245Z,17.70
2018-09-03T19:10:30.325Z,18.70
2018-09-03T19:15:34.366Z,21.03
2018-09-03T19:20:38.718Z,20.27
2018-09-03T19:25:42.608Z,21.30
2018-09-03T19:30:46.601Z,19.40
2018-09-03T19:35:49.996Z,20.10
2018-09-03T19:40:58.888Z,15.00
2018-09-03T19:46:03.596Z,18.20
2018-09-03T19:51:07.976Z,21.67
2018-09-03T19:56:12.467Z,23.87
2018-09-03T20:01:16.121Z,25.33
2018-09-03T20:06:19.644Z,33.50
2018-09-03T20:11:23.071Z,24.00
2018-09-03T20:16:28.192Z,23.73
2018-09-03T20:21:36.805Z,22.20
2018-09-03T20:26:40.834Z,30.70
2018-09-03T20:31:44.325Z,22.67
2018-09-03T20:36:47.754Z,27.00
2018-09-03T20:41:51.204Z,30.13
2018-09-03T20:46:55.017Z,30.70
2018-09-03T20:52:01.074Z,35.77
2018-09-03T20:57:05.787Z,28.07
2018-09-03T21:02:09.965Z,34.87
2018-09-03T21:07:13.807Z,30.87
2018-09-03T21:12:17.238Z,32.83
2018-09-03T21:17:20.613Z,32.37
2018-09-03T21:22:24.003Z,37.37
2018-09-03T21:27:30.200Z,34.80
2018-09-03T21:32:35.408Z,35.13
2018-09-03T21:37:40.684Z,35.20
2018-09-03T21:42:44.185Z,34.30
2018-09-03T21:47:47.648Z,38.90
2018-09-03T21:52:51.074Z,39.83
2018-09-03T21:57:54.550Z,38.50
2018-09-03T22:03:01.555Z,31.70
2018-09-03T22:08:08.233Z,27.67
2018-09-03T22:13:12.023Z,34.27
2018-09-03T22:18:15.533Z,39.07
2018-09-03T22:23:18.982Z,31.80
2018-09-03T22:28:22.424Z,28.90
2018-09-03T22:33:25.793Z,30.80
2018-09-03T22:38:32.462Z,30.93
2018-09-03T22:43:36.966Z,32.40
2018-09-03T22:48:40.893Z,34.13
2018-09-03T22:53:44.338Z,30.97
2018-09-03T22:58:47.750Z,29.83
2018-09-03T23:03:51.142Z,33.10
2018-09-03T23:08:54.575Z,31.60
2018-09-03T23:13:59.103Z,35.77
2018-09-03T23:19:04.820Z,31.30
2018-09-03T23:24:09.709Z,37.47
2018-09-03T23:29:13.171Z,37.70
2018-09-03T23:34:16.597Z,43.60
2018-09-03T23:39:19.990Z,39.10
2018-09-03T23:44:23.757Z,43.13
2018-09-03T23:49:29.245Z,39.90
2018-09-03T23:54:35.533Z,42.13
2018-09-03T23:59:40.107Z,39.93
